createdAt,value
2018-04-26T00:01:27.126Z,15.88
2018-04-26T00:03:53.728Z,15.62
2018-04-26T00:06:20.373Z,15.42
2018-04-26T00:08:50.929Z,15.61
2018-04-26T00:11:17.502Z,15.72
2018-04-26T00:13:44.413Z,15.68
2018-04-26T00:16:11.143Z,15.63
2018-04-26T00:18:38.721Z,15.79
2018-04-26T00:21:05.214Z,15.67
2018-04-26T00:23:31.902Z,15.62
2018-04-26T00:25:58.530Z,15.72
2018-04-26T00:28:25.298Z,15.67
2018-04-26T00:30:51.994Z,15.56
2018-04-26T00:33:18.601Z,15.29
2018-04-26T00:35:45.179Z,15.19
2018-04-26T00:38:11.979Z,15.36
2018-04-26T00:40:38.640Z,15.41
2018-04-26T00:43:05.238Z,15.50
2018-04-26T00:45:31.998Z,15.41
2018-04-26T00:48:02.205Z,15.39
2018-04-26T00:50:28.665Z,15.57
2018-04-26T00:52:55.349Z,15.45
2018-04-26T00:55:22.045Z,15.47
2018-04-26T00:57:52.034Z,15.35
2018-04-26T01:00:18.771Z,15.49
2018-04-26T01:02:45.495Z,15.38
2018-04-26T01:05:12.133Z,15.15
2018-04-26T01:07:44.778Z,15.16
2018-04-26T01:10:11.545Z,15.42
2018-04-26T01:12:38.241Z,15.48
2018-04-26T01:15:04.933Z,15.41
2018-04-26T01:17:36.244Z,15.39
2018-04-26T01:20:02.899Z,15.43
2018-04-26T01:22:29.356Z,15.42
2018-04-26T01:24:56.056Z,15.43
2018-04-26T01:27:22.683Z,15.44
2018-04-26T01:29:49.326Z,15.43
2018-04-26T01:32:16.025Z,15.40
2018-04-26T01:34:42.696Z,15.44
2018-04-26T01:37:21.391Z,15.32
2018-04-26T01:39:48.005Z,15.41
2018-04-26T01:42:14.637Z,15.42
2018-04-26T01:44:41.336Z,15.45
2018-04-26T01:47:07.901Z,15.41
2018-04-26T01:49:38.086Z,15.49
2018-04-26T01:52:05.629Z,15.44
2018-04-26T01:54:32.370Z,15.32
2018-04-26T01:56:58.954Z,15.36
2018-04-26T01:59:28.788Z,15.12
2018-04-26T02:01:55.499Z,15.29
2018-04-26T02:04:22.120Z,15.45
2018-04-26T02:06:48.681Z,15.36
2018-04-26T02:09:15.471Z,15.33
2018-04-26T02:11:42.045Z,15.41
2018-04-26T02:14:08.737Z,15.37
2018-04-26T02:16:35.462Z,15.06
2018-04-26T02:19:06.007Z,15.15
2018-04-26T02:21:32.624Z,15.22
2018-04-26T02:23:59.148Z,15.28
2018-04-26T02:26:25.790Z,15.37
2018-04-26T02:28:53.558Z,15.34
2018-04-26T02:31:20.148Z,15.14
2018-04-26T02:33:46.903Z,15.06
2018-04-26T02:36:13.687Z,14.86
2018-04-26T02:38:43.301Z,14.93
2018-04-26T02:41:09.910Z,15.20
2018-04-26T02:43:36.594Z,15.22
2018-04-26T02:46:03.239Z,15.09
2018-04-26T02:48:31.241Z,15.14
2018-04-26T02:50:57.886Z,15.16
2018-04-26T02:53:24.577Z,15.11
2018-04-26T02:55:51.295Z,15.07
2018-04-26T02:58:18.910Z,15.15
2018-04-26T03:00:45.562Z,15.24
2018-04-26T03:03:12.269Z,15.05
2018-04-26T03:05:38.880Z,15.04
2018-04-26T03:08:08.923Z,15.15
2018-04-26T03:10:35.672Z,15.20
2018-04-26T03:13:02.321Z,15.07
2018-04-26T03:15:28.912Z,15.10
2018-04-26T03:17:55.787Z,15.26
2018-04-26T03:20:22.348Z,15.12
2018-04-26T03:22:49.006Z,15.09
2018-04-26T03:25:15.866Z,15.17
2018-04-26T03:28:06.551Z,15.17
2018-04-26T03:30:33.350Z,15.34
2018-04-26T03:32:59.985Z,15.26
2018-04-26T03:35:26.597Z,15.33
2018-04-26T03:37:56.321Z,15.38
2018-04-26T03:40:22.945Z,15.58
2018-04-26T03:42:49.656Z,15.68
2018-04-26T03:45:16.390Z,15.52
2018-04-26T03:47:44.209Z,15.36
2018-04-26T03:50:10.809Z,15.55
2018-04-26T03:52:37.429Z,15.57
2018-04-26T03:55:03.967Z,15.68
2018-04-26T03:57:34.317Z,15.21
2018-04-26T04:00:12.906Z,15.43
2018-04-26T04:02:51.337Z,15.75
2018-04-26T04:05:30.024Z,16.13
2018-04-26T04:08:00.647Z,16.28
2018-04-26T04:10:27.217Z,16.42
2018-04-26T04:12:53.846Z,16.40
2018-04-26T04:15:20.465Z,16.40
2018-04-26T04:17:53.340Z,16.09
2018-04-26T04:20:19.934Z,16.44
2018-04-26T04:22:46.535Z,16.59
2018-04-26T04:25:13.176Z,16.82
2018-04-26T04:27:40.822Z,17.11
2018-04-26T04:30:07.433Z,17.17
2018-04-26T04:32:34.130Z,17.32
2018-04-26T04:35:00.710Z,17.33
2018-04-26T04:37:37.559Z,17.21
2018-04-26T04:40:04.272Z,17.30
2018-04-26T04:42:31.030Z,17.70
2018-04-26T04:44:57.706Z,17.69
2018-04-26T04:47:28.189Z,17.18
2018-04-26T04:49:54.817Z,17.10
2018-04-26T04:52:21.570Z,16.79
2018-04-26T04:54:48.059Z,17.45
2018-04-26T04:57:15.762Z,17.53
2018-04-26T04:59:42.374Z,17.58
2018-04-26T05:02:09.096Z,17.76
2018-04-26T05:04:35.628Z,18.08
2018-04-26T05:07:07.309Z,18.12
2018-04-26T05:09:33.930Z,18.09
2018-04-26T05:12:00.604Z,17.96
2018-04-26T05:14:27.155Z,18.23
2018-04-26T05:16:57.302Z,18.36
2018-04-26T05:19:24.037Z,18.51
2018-04-26T05:21:50.529Z,18.66
2018-04-26T05:24:17.208Z,18.87
2018-04-26T05:26:48.606Z,18.94
2018-04-26T05:29:15.330Z,18.99
2018-04-26T05:31:42.002Z,19.09
2018-04-26T05:34:08.883Z,19.28
2018-04-26T05:36:35.470Z,19.37
2018-04-26T05:39:02.069Z,19.24
2018-04-26T05:41:28.775Z,19.32
2018-04-26T05:43:55.558Z,19.60
2018-04-26T05:46:22.473Z,19.84
2018-04-26T05:48:59.428Z,19.89
2018-04-26T05:51:26.130Z,20.13
2018-04-26T05:53:52.642Z,20.47
2018-04-26T05:56:19.325Z,20.71
2018-04-26T05:58:49.556Z,21.02
2018-04-26T06:01:16.175Z,21.27
2018-04-26T06:03:42.894Z,21.04
2018-04-26T06:06:09.501Z,21.32
2018-04-26T06:08:42.428Z,21.11
2018-04-26T06:11:09.125Z,21.57
2018-04-26T06:13:35.809Z,21.56
2018-04-26T06:16:02.577Z,21.84
2018-04-26T06:18:34.442Z,21.67
2018-04-26T06:21:01.157Z,21.46
2018-04-26T06:23:27.881Z,21.30
2018-04-26T06:25:54.642Z,21.08
2018-04-26T06:28:27.221Z,21.53
2018-04-26T06:30:53.934Z,21.31
2018-04-26T06:33:20.641Z,21.21
2018-04-26T06:35:47.335Z,21.42
2018-04-26T06:38:18.678Z,21.77
2018-04-26T06:40:45.296Z,21.56
2018-04-26T06:43:11.996Z,22.01
2018-04-26T06:45:38.731Z,21.07
2018-04-26T06:48:09.281Z,21.61
2018-04-26T06:50:36.012Z,22.23
2018-04-26T06:53:02.641Z,22.46
2018-04-26T06:55:29.304Z,22.57
2018-04-26T06:58:01.328Z,22.51
2018-04-26T07:00:27.900Z,22.88
2018-04-26T07:02:54.423Z,22.81
2018-04-26T07:05:21.098Z,23.05
2018-04-26T07:07:52.249Z,22.86
2018-04-26T07:10:19.007Z,23.02
2018-04-26T07:12:45.594Z,23.53
2018-04-26T07:15:12.148Z,23.43
2018-04-26T07:17:51.773Z,23.28
2018-04-26T07:20:18.401Z,23.22
2018-04-26T07:22:45.037Z,23.61
2018-04-26T07:25:11.610Z,23.76
2018-04-26T07:27:41.283Z,24.06
2018-04-26T07:30:07.907Z,23.90
2018-04-26T07:32:34.632Z,24.01
2018-04-26T07:35:05.026Z,24.47
2018-04-26T07:37:35.262Z,24.37
2018-04-26T07:40:01.911Z,23.87
2018-04-26T07:42:28.583Z,24.35
2018-04-26T07:44:55.250Z,24.72
2018-04-26T07:47:26.463Z,24.65
2018-04-26T07:49:53.174Z,24.70
2018-04-26T07:52:19.729Z,24.59
2018-04-26T07:54:46.406Z,25.14
2018-04-26T07:57:23.011Z,25.14
2018-04-26T07:59:49.758Z,25.28
2018-04-26T08:02:16.384Z,25.45
2018-04-26T08:04:43.041Z,25.48
2018-04-26T08:07:23.975Z,25.59
2018-04-26T08:09:50.654Z,24.98
2018-04-26T08:12:17.298Z,25.63
2018-04-26T08:14:44.098Z,25.25
2018-04-26T08:17:21.254Z,25.77
2018-04-26T08:19:47.817Z,24.95
2018-04-26T08:22:14.497Z,25.73
2018-04-26T08:24:41.036Z,26.28
2018-04-26T08:27:10.753Z,25.87
2018-04-26T08:29:37.427Z,25.93
2018-04-26T08:32:03.996Z,26.80
2018-04-26T08:34:30.527Z,26.85
2018-04-26T08:37:00.550Z,26.91
2018-04-26T08:39:27.118Z,27.11
2018-04-26T08:41:53.743Z,26.77
2018-04-26T08:44:20.353Z,27.82
2018-04-26T08:46:50.319Z,26.98
2018-04-26T08:49:16.994Z,27.92
2018-04-26T08:51:44.462Z,28.19
2018-04-26T08:54:11.037Z,27.69
2018-04-26T08:56:44.161Z,27.54
2018-04-26T08:59:10.564Z,27.10
2018-04-26T09:01:37.116Z,27.87
2018-04-26T09:04:03.682Z,28.35
2018-04-26T09:06:38.005Z,28.59
2018-04-26T09:09:04.640Z,28.42
2018-04-26T09:11:31.329Z,28.27
2018-04-26T09:13:58.002Z,28.92
2018-04-26T09:16:24.845Z,28.38
2018-04-26T09:18:51.413Z,28.97
2018-04-26T09:21:18.030Z,27.69
2018-04-26T09:23:44.652Z,29.07
2018-04-26T09:26:14.639Z,28.86
2018-04-26T09:28:41.250Z,28.40
2018-04-26T09:31:07.884Z,28.13
2018-04-26T09:33:34.602Z,29.32
2018-04-26T09:36:07.085Z,28.91
2018-04-26T09:38:33.776Z,28.57
2018-04-26T09:41:00.479Z,29.39
2018-04-26T09:43:27.064Z,29.35
2018-04-26T09:45:53.643Z,29.39
2018-04-26T09:48:20.525Z,28.19
2018-04-26T09:50:47.189Z,30.16
2018-04-26T09:53:13.743Z,29.71
2018-04-26T09:55:40.233Z,29.75
2018-04-26T09:58:10.590Z,29.64
2018-04-26T10:00:42.090Z,29.08
2018-04-26T10:03:08.812Z,29.86
2018-04-26T10:05:41.291Z,29.76
2018-04-26T10:08:09.011Z,29.83
2018-04-26T10:10:35.750Z,28.97
2018-04-26T10:13:02.425Z,29.58
2018-04-26T10:15:29.131Z,30.01
2018-04-26T10:18:12.958Z,30.05
2018-04-26T10:20:39.638Z,30.26
2018-04-26T10:23:06.254Z,29.87
2018-04-26T10:25:32.913Z,30.23
2018-04-26T10:28:03.670Z,30.80
2018-04-26T10:30:30.393Z,30.35
2018-04-26T10:32:57.192Z,29.74
2018-04-26T10:35:23.839Z,30.33
2018-04-26T10:37:54.543Z,30.77
2018-04-26T10:40:21.121Z,30.75
2018-04-26T10:42:47.697Z,30.00
2018-04-26T10:45:14.425Z,30.53
2018-04-26T10:47:51.171Z,30.87
2018-04-26T10:50:17.929Z,31.15
2018-04-26T10:52:44.645Z,30.98
2018-04-26T10:55:11.328Z,30.38
2018-04-26T10:57:45.118Z,31.11
2018-04-26T11:00:11.776Z,30.84
2018-04-26T11:02:38.382Z,31.18
2018-04-26T11:05:04.905Z,30.16
2018-04-26T11:07:38.326Z,30.07
2018-04-26T11:10:05.020Z,29.70
2018-04-26T11:12:31.622Z,29.67
2018-04-26T11:14:58.278Z,30.00
2018-04-26T11:17:28.678Z,29.68
2018-04-26T11:19:55.384Z,30.27
2018-04-26T11:22:22.121Z,29.13
2018-04-26T11:24:48.742Z,29.29
2018-04-26T11:27:16.509Z,30.09
2018-04-26T11:29:43.106Z,30.42
2018-04-26T11:32:09.742Z,30.31
2018-04-26T11:34:36.354Z,30.12
2018-04-26T11:37:06.479Z,30.05
2018-04-26T11:39:33.125Z,29.62
2018-04-26T11:41:59.712Z,30.12
2018-04-26T11:44:26.348Z,31.06
2018-04-26T11:46:53.227Z,30.84
2018-04-26T11:49:20.468Z,29.81
2018-04-26T11:51:47.131Z,30.42
2018-04-26T11:54:13.830Z,30.67
2018-04-26T11:56:47.915Z,30.54
2018-04-26T11:59:14.567Z,31.73
2018-04-26T12:01:41.196Z,30.39
2018-04-26T12:04:07.820Z,29.76
2018-04-26T12:06:41.913Z,30.16
2018-04-26T12:09:08.956Z,29.66
2018-04-26T12:11:35.658Z,30.32
2018-04-26T12:14:02.350Z,30.11
2018-04-26T12:16:42.713Z,29.99
2018-04-26T12:19:09.349Z,30.07
2018-04-26T12:21:35.942Z,28.97
2018-04-26T12:24:02.607Z,30.21
2018-04-26T12:26:39.885Z,30.58
2018-04-26T12:29:06.590Z,29.67
2018-04-26T12:31:33.194Z,29.94
2018-04-26T12:33:59.885Z,29.75
2018-04-26T12:36:32.884Z,30.40
2018-04-26T12:38:59.525Z,29.08
2018-04-26T12:41:26.246Z,29.77
2018-04-26T12:43:53.057Z,30.69
2018-04-26T12:46:29.806Z,29.23
2018-04-26T12:48:56.555Z,29.88
2018-04-26T12:51:23.251Z,30.09
2018-04-26T12:53:49.974Z,29.29
2018-04-26T12:56:26.704Z,30.52
2018-04-26T12:58:53.440Z,30.20
2018-04-26T13:01:20.127Z,29.77
2018-04-26T13:03:46.758Z,29.63
2018-04-26T13:06:14.317Z,30.05
2018-04-26T13:08:40.885Z,28.81
2018-04-26T13:11:07.747Z,28.72
2018-04-26T13:13:34.164Z,29.27
2018-04-26T13:16:07.833Z,28.65
2018-04-26T13:18:34.602Z,29.00
2018-04-26T13:21:01.309Z,29.48
2018-04-26T13:23:27.882Z,29.54
2018-04-26T13:25:58.133Z,28.89
2018-04-26T13:28:24.765Z,29.10
2018-04-26T13:30:51.375Z,30.32
2018-04-26T13:33:18.079Z,30.85
2018-04-26T13:35:48.166Z,29.75
2018-04-26T13:38:14.862Z,29.55
2018-04-26T13:40:41.506Z,29.26
2018-04-26T13:43:08.273Z,29.27
2018-04-26T13:45:34.894Z,30.18
2018-04-26T13:48:01.535Z,29.46
2018-04-26T13:50:28.800Z,29.60
2018-04-26T13:52:55.375Z,30.30
2018-04-26T13:55:22.050Z,30.76
2018-04-26T13:57:48.698Z,29.44
2018-04-26T14:00:15.289Z,29.21
2018-04-26T14:02:41.866Z,29.02
2018-04-26T14:05:08.369Z,29.81
2018-04-26T14:07:39.523Z,27.79
2018-04-26T14:10:06.156Z,28.15
2018-04-26T14:12:32.803Z,28.95
2018-04-26T14:14:59.911Z,28.96
2018-04-26T14:17:30.405Z,28.19
2018-04-26T14:19:56.958Z,30.10
2018-04-26T14:22:23.638Z,30.28
2018-04-26T14:24:50.287Z,29.55
2018-04-26T14:27:20.443Z,29.62
2018-04-26T14:29:47.106Z,27.97
2018-04-26T14:32:13.746Z,28.48
2018-04-26T14:34:40.326Z,29.34
2018-04-26T14:37:10.747Z,29.20
2018-04-26T14:39:37.277Z,28.51
2018-04-26T14:42:03.824Z,28.39
2018-04-26T14:44:30.399Z,29.19
2018-04-26T14:47:16.864Z,28.05
2018-04-26T14:49:43.561Z,28.74
2018-04-26T14:52:10.169Z,29.08
2018-04-26T14:54:36.871Z,27.91
2018-04-26T14:57:06.710Z,28.52
2018-04-26T14:59:33.355Z,27.71
2018-04-26T15:02:00.353Z,29.33
2018-04-26T15:04:27.105Z,28.31
2018-04-26T15:06:59.402Z,28.12
2018-04-26T15:09:26.047Z,27.25
2018-04-26T15:11:52.739Z,27.22
2018-04-26T15:14:19.382Z,27.21
2018-04-26T15:16:53.742Z,27.96
2018-04-26T15:19:20.541Z,26.33
2018-04-26T15:21:47.328Z,28.31
2018-04-26T15:24:13.890Z,30.50
2018-04-26T15:26:41.827Z,30.85
2018-04-26T15:29:08.507Z,31.30
2018-04-26T15:31:35.146Z,33.28
2018-04-26T15:34:01.928Z,31.90
2018-04-26T15:36:39.796Z,29.84
2018-04-26T15:39:06.425Z,30.68
2018-04-26T15:41:32.959Z,30.78
2018-04-26T15:43:59.646Z,28.91
2018-04-26T15:46:36.609Z,28.59
2018-04-26T15:49:03.241Z,29.54
2018-04-26T15:51:29.971Z,29.29
2018-04-26T15:54:08.351Z,28.40
2018-04-26T15:56:53.601Z,28.26
2018-04-26T15:59:32.208Z,28.63
2018-04-26T16:02:25.476Z,28.10
2018-04-26T16:05:04.093Z,28.44
2018-04-26T16:07:49.601Z,27.44
2018-04-26T16:10:28.117Z,26.15
2018-04-26T16:13:12.814Z,26.92
2018-04-26T16:16:03.302Z,26.40
2018-04-26T16:18:42.718Z,26.17
2018-04-26T16:21:27.299Z,24.98
2018-04-26T16:27:27.974Z,23.51
2018-04-26T16:30:06.325Z,23.70
2018-04-26T16:32:44.932Z,23.78
2018-04-26T16:35:23.580Z,22.98
2018-04-26T16:38:07.998Z,22.26
2018-04-26T16:40:34.693Z,21.97
2018-04-26T16:43:01.451Z,22.27
2018-04-26T16:45:29.178Z,22.31
2018-04-26T16:47:55.830Z,22.13
2018-04-26T16:50:22.539Z,22.31
2018-04-26T16:52:49.154Z,22.32
2018-04-26T16:55:16.846Z,21.97
2018-04-26T16:57:43.478Z,21.89
2018-04-26T17:00:10.082Z,22.03
2018-04-26T17:02:36.771Z,21.59
2018-04-26T17:05:04.713Z,21.82
2018-04-26T17:07:31.416Z,21.80
2018-04-26T17:09:58.038Z,21.57
2018-04-26T17:12:24.768Z,21.78
2018-04-26T17:14:51.441Z,20.99
2018-04-26T17:17:18.122Z,21.44
2018-04-26T17:19:44.877Z,20.95
2018-04-26T17:22:11.527Z,20.88
2018-04-26T17:24:38.162Z,21.32
2018-04-26T17:27:08.744Z,21.54
2018-04-26T17:29:35.512Z,21.47
2018-04-26T17:32:02.062Z,21.29
2018-04-26T17:34:28.779Z,20.84
2018-04-26T17:36:59.173Z,21.18
2018-04-26T17:39:25.751Z,20.84
2018-04-26T17:41:52.330Z,20.80
2018-04-26T17:44:18.875Z,21.03
2018-04-26T17:46:46.644Z,21.04
2018-04-26T17:49:13.386Z,20.43
2018-04-26T17:51:40.086Z,20.22
2018-04-26T17:54:06.730Z,20.19
2018-04-26T17:56:35.352Z,20.67
2018-04-26T17:59:02.124Z,20.58
2018-04-26T18:01:28.825Z,20.49
2018-04-26T18:03:55.597Z,20.48
2018-04-26T18:06:22.443Z,20.23
2018-04-26T18:08:49.124Z,20.19
2018-04-26T18:11:15.823Z,19.67
2018-04-26T18:13:42.478Z,19.87
2018-04-26T18:16:12.525Z,19.34
2018-04-26T18:18:39.277Z,19.69
2018-04-26T18:21:05.978Z,19.81
2018-04-26T18:23:32.596Z,19.43
2018-04-26T18:26:00.179Z,19.04
2018-04-26T18:28:26.961Z,19.41
2018-04-26T18:30:53.745Z,19.54
2018-04-26T18:33:20.449Z,19.95
2018-04-26T18:35:51.212Z,19.77
2018-04-26T18:38:17.762Z,19.37
2018-04-26T18:40:45.046Z,18.55
2018-04-26T18:43:11.835Z,19.18
2018-04-26T18:45:40.234Z,19.18
2018-04-26T18:48:06.963Z,19.26
2018-04-26T18:50:33.639Z,19.20
2018-04-26T18:53:00.407Z,18.95
2018-04-26T18:55:30.724Z,18.75
2018-04-26T18:57:57.503Z,19.02
2018-04-26T19:00:24.239Z,18.67
2018-04-26T19:02:50.982Z,18.92
2018-04-26T19:05:20.846Z,18.95
2018-04-26T19:07:47.575Z,18.57
2018-04-26T19:10:14.286Z,18.62
2018-04-26T19:12:41.067Z,18.51
2018-04-26T19:15:10.928Z,18.18
2018-04-26T19:17:37.799Z,18.32
2018-04-26T19:20:04.495Z,18.24
2018-04-26T19:22:31.265Z,18.38
2018-04-26T19:24:59.155Z,18.50
2018-04-26T19:27:25.725Z,18.44
2018-04-26T19:29:52.598Z,18.31
2018-04-26T19:32:19.281Z,18.48
2018-04-26T19:34:51.949Z,17.87
2018-04-26T19:37:18.523Z,18.01
2018-04-26T19:39:45.317Z,17.93
2018-04-26T19:42:11.991Z,17.92
2018-04-26T19:44:42.282Z,17.53
2018-04-26T19:47:08.995Z,17.94
2018-04-26T19:49:35.719Z,17.53
2018-04-26T19:52:02.440Z,17.66
2018-04-26T19:54:32.927Z,17.58
2018-04-26T19:56:59.609Z,17.85
2018-04-26T19:59:26.349Z,17.79
2018-04-26T20:01:53.008Z,17.84
2018-04-26T20:04:19.777Z,17.81
2018-04-26T20:06:46.632Z,17.57
2018-04-26T20:09:13.380Z,17.59
2018-04-26T20:11:40.118Z,17.34
2018-04-26T20:14:06.736Z,17.63
2018-04-26T20:16:40.812Z,17.43
2018-04-26T20:19:07.421Z,17.81
2018-04-26T20:21:34.125Z,17.53
2018-04-26T20:24:00.818Z,17.51
2018-04-26T20:26:30.940Z,17.39
2018-04-26T20:28:57.691Z,17.29
2018-04-26T20:31:24.354Z,17.25
2018-04-26T20:33:51.066Z,17.48
2018-04-26T20:36:21.230Z,17.28
2018-04-26T20:38:48.402Z,17.06
2018-04-26T20:41:15.092Z,17.27
2018-04-26T20:43:41.736Z,17.39
2018-04-26T20:46:12.206Z,17.02
2018-04-26T20:48:40.761Z,17.32
2018-04-26T20:51:07.423Z,17.17
2018-04-26T20:53:34.156Z,16.98
2018-04-26T20:56:04.152Z,17.08
2018-04-26T20:58:30.780Z,17.05
2018-04-26T21:00:57.583Z,17.20
2018-04-26T21:03:24.205Z,17.10
2018-04-26T21:05:51.025Z,17.21
2018-04-26T21:08:17.817Z,16.94
2018-04-26T21:10:44.456Z,17.10
2018-04-26T21:13:11.097Z,16.95
2018-04-26T21:15:41.538Z,16.44
2018-04-26T21:18:08.092Z,16.47
2018-04-26T21:20:34.772Z,16.79
2018-04-26T21:23:01.570Z,16.26
2018-04-26T21:25:29.379Z,16.58
2018-04-26T21:27:56.051Z,16.66
2018-04-26T21:30:22.666Z,16.93
2018-04-26T21:32:49.957Z,16.47
2018-04-26T21:35:20.014Z,16.51
2018-04-26T21:37:46.718Z,16.02
2018-04-26T21:40:13.346Z,16.13
2018-04-26T21:42:40.032Z,16.14
2018-04-26T21:45:06.789Z,16.36
2018-04-26T21:47:33.483Z,16.17
2018-04-26T21:50:06.151Z,16.45
2018-04-26T21:52:38.780Z,16.63
2018-04-26T21:55:12.488Z,16.41
2018-04-26T21:57:44.917Z,16.74
2018-04-26T22:00:17.529Z,16.69
2018-04-26T22:02:43.862Z,16.51
2018-04-26T22:05:32.206Z,16.70
2018-04-26T22:07:59.018Z,16.45
2018-04-26T22:10:26.089Z,16.58
2018-04-26T22:12:52.718Z,16.38
2018-04-26T22:15:20.348Z,16.63
2018-04-26T22:17:47.188Z,16.52
2018-04-26T22:20:13.895Z,15.66
2018-04-26T22:22:40.489Z,16.08
2018-04-26T22:25:13.633Z,16.09
2018-04-26T22:27:40.348Z,15.88
2018-04-26T22:30:06.913Z,15.87
2018-04-26T22:32:33.598Z,16.03
2018-04-26T22:35:03.672Z,16.28
2018-04-26T22:37:30.481Z,15.46
2018-04-26T22:39:57.440Z,15.76
2018-04-26T22:42:23.988Z,15.97
2018-04-26T22:44:51.681Z,16.02
2018-04-26T22:47:18.374Z,16.25
2018-04-26T22:49:48.146Z,15.75
2018-04-26T22:52:14.838Z,16.17
2018-04-26T22:54:42.554Z,15.80
2018-04-26T22:57:09.230Z,15.38
2018-04-26T22:59:35.925Z,15.76
2018-04-26T23:02:02.662Z,15.95
2018-04-26T23:04:30.466Z,15.27
2018-04-26T23:06:57.193Z,15.42
2018-04-26T23:09:23.935Z,16.03
2018-04-26T23:11:50.705Z,16.10
2018-04-26T23:14:21.986Z,16.27
2018-04-26T23:16:49.025Z,16.53
2018-04-26T23:19:15.653Z,15.83
2018-04-26T23:21:42.188Z,16.37
2018-04-26T23:24:12.984Z,16.59
2018-04-26T23:26:39.574Z,16.43
2018-04-26T23:29:06.355Z,16.37
2018-04-26T23:31:32.973Z,16.60
2018-04-26T23:33:59.610Z,16.80
2018-04-26T23:36:26.818Z,16.64
2018-04-26T23:38:53.569Z,16.74
2018-04-26T23:41:20.255Z,16.76
2018-04-26T23:43:47.357Z,16.83
2018-04-26T23:46:18.409Z,16.78
2018-04-26T23:48:45.065Z,16.87
2018-04-26T23:51:11.712Z,16.79
2018-04-26T23:53:38.304Z,16.74
2018-04-26T23:56:08.728Z,16.68
2018-04-26T23:58:35.340Z,16.65
